sensor_id;sensor_type;location;lat;lon;timestamp;P1;durP1;ratioP1;P2;durP2;ratioP2
68192;SDS011;55012;47.562;18.414;2022-09-13T00:00:47;7.90;;;5.10;;
68192;SDS011;55012;47.562;18.414;2022-09-13T00:03:14;8.00;;;4.50;;
68192;SDS011;55012;47.562;18.414;2022-09-13T00:05:39;11.65;;;5.60;;
68192;SDS011;55012;47.562;18.414;2022-09-13T00:08:05;7.50;;;4.80;;
68192;SDS011;55012;47.562;18.414;2022-09-13T00:10:36;8.70;;;4.55;;
68192;SDS011;55012;47.562;18.414;2022-09-13T00:13:03;10.15;;;4.90;;
68192;SDS011;55012;47.562;18.414;2022-09-13T00:15:30;8.43;;;4.90;;
68192;SDS011;55012;47.562;18.414;2022-09-13T00:17:59;9.18;;;4.85;;
68192;SDS011;55012;47.562;18.414;2022-09-13T00:20:24;10.25;;;4.85;;
68192;SDS011;55012;47.562;18.414;2022-09-13T00:22:50;8.32;;;4.50;;
68192;SDS011;55012;47.562;18.414;2022-09-13T00:25:16;10.10;;;5.47;;
68192;SDS011;55012;47.562;18.414;2022-09-13T00:27:42;12.07;;;5.63;;
68192;SDS011;55012;47.562;18.414;2022-09-13T00:30:09;8.40;;;4.80;;
68192;SDS011;55012;47.562;18.414;2022-09-13T00:32:36;14.43;;;6.22;;
68192;SDS011;55012;47.562;18.414;2022-09-13T00:35:03;12.57;;;5.22;;
68192;SDS011;55012;47.562;18.414;2022-09-13T00:37:29;11.10;;;5.45;;
68192;SDS011;55012;47.562;18.414;2022-09-13T00:39:57;10.32;;;5.60;;
68192;SDS011;55012;47.562;18.414;2022-09-13T00:42:29;17.73;;;7.47;;
68192;SDS011;55012;47.562;18.414;2022-09-13T00:45:00;27.17;;;9.70;;
68192;SDS011;55012;47.562;18.414;2022-09-13T00:50:07;26.88;;;8.15;;
68192;SDS011;55012;47.562;18.414;2022-09-13T00:53:25;27.88;;;9.05;;
68192;SDS011;55012;47.562;18.414;2022-09-13T00:58:20;21.73;;;7.45;;
68192;SDS011;55012;47.562;18.414;2022-09-13T01:00:53;18.00;;;6.78;;
68192;SDS011;55012;47.562;18.414;2022-09-13T01:03:21;23.15;;;7.55;;
68192;SDS011;55012;47.562;18.414;2022-09-13T01:05:58;22.00;;;7.50;;
68192;SDS011;55012;47.562;18.414;2022-09-13T01:08:27;26.92;;;7.68;;
68192;SDS011;55012;47.562;18.414;2022-09-13T01:10:56;21.88;;;7.25;;
68192;SDS011;55012;47.562;18.414;2022-09-13T01:13:25;21.60;;;7.05;;
68192;SDS011;55012;47.562;18.414;2022-09-13T01:15:56;17.50;;;6.10;;
68192;SDS011;55012;47.562;18.414;2022-09-13T01:18:22;14.65;;;6.22;;
68192;SDS011;55012;47.562;18.414;2022-09-13T01:23:42;35.22;;;11.35;;
68192;SDS011;55012;47.562;18.414;2022-09-13T01:26:22;63.78;;;17.55;;
68192;SDS011;55012;47.562;18.414;2022-09-13T01:32:15;80.70;;;23.25;;
68192;SDS011;55012;47.562;18.414;2022-09-13T01:35:12;150.70;;;45.08;;
68192;SDS011;55012;47.562;18.414;2022-09-13T01:38:05;152.10;;;44.72;;
68192;SDS011;55012;47.562;18.414;2022-09-13T01:45:58;128.50;;;40.42;;
68192;SDS011;55012;47.562;18.414;2022-09-13T01:48:35;91.22;;;26.90;;
68192;SDS011;55012;47.562;18.414;2022-09-13T01:51:32;73.55;;;21.13;;
68192;SDS011;55012;47.562;18.414;2022-09-13T01:54:37;91.90;;;24.75;;
68192;SDS011;55012;47.562;18.414;2022-09-13T01:59:56;81.90;;;22.67;;
68192;SDS011;55012;47.562;18.414;2022-09-13T02:02:36;86.57;;;21.70;;
68192;SDS011;55012;47.562;18.414;2022-09-13T02:07:37;77.97;;;19.85;;
68192;SDS011;55012;47.562;18.414;2022-09-13T02:10:11;44.85;;;14.05;;
68192;SDS011;55012;47.562;18.414;2022-09-13T02:12:41;32.47;;;12.02;;
68192;SDS011;55012;47.562;18.414;2022-09-13T02:15:13;24.17;;;9.70;;
68192;SDS011;55012;47.562;18.414;2022-09-13T02:17:42;30.52;;;10.05;;
68192;SDS011;55012;47.562;18.414;2022-09-13T02:20:18;28.10;;;12.00;;
68192;SDS011;55012;47.562;18.414;2022-09-13T02:22:50;32.13;;;12.10;;
68192;SDS011;55012;47.562;18.414;2022-09-13T02:25:21;40.70;;;12.20;;
68192;SDS011;55012;47.562;18.414;2022-09-13T02:27:50;87.03;;;39.85;;
68192;SDS011;55012;47.562;18.414;2022-09-13T02:30:23;98.22;;;45.20;;
68192;SDS011;55012;47.562;18.414;2022-09-13T02:32:52;83.78;;;38.63;;
68192;SDS011;55012;47.562;18.414;2022-09-13T02:36:12;78.22;;;32.95;;
68192;SDS011;55012;47.562;18.414;2022-09-13T02:38:25;89.60;;;41.25;;
68192;SDS011;55012;47.562;18.414;2022-09-13T02:40:59;76.57;;;33.35;;
68192;SDS011;55012;47.562;18.414;2022-09-13T02:43:40;68.70;;;24.85;;
68192;SDS011;55012;47.562;18.414;2022-09-13T02:49:13;57.53;;;19.38;;
68192;SDS011;55012;47.562;18.414;2022-09-13T02:54:46;46.25;;;14.85;;
68192;SDS011;55012;47.562;18.414;2022-09-13T02:59:55;91.75;;;28.33;;
68192;SDS011;55012;47.562;18.414;2022-09-13T03:02:20;85.53;;;26.67;;
68192;SDS011;55012;47.562;18.414;2022-09-13T03:04:50;88.30;;;26.30;;
68192;SDS011;55012;47.562;18.414;2022-09-13T03:07:15;80.13;;;23.35;;
68192;SDS011;55012;47.562;18.414;2022-09-13T03:09:43;66.75;;;19.33;;
68192;SDS011;55012;47.562;18.414;2022-09-13T03:12:21;47.45;;;15.68;;
68192;SDS011;55012;47.562;18.414;2022-09-13T03:31:13;29.00;;;10.10;;
68192;SDS011;55012;47.562;18.414;2022-09-13T03:34:07;29.02;;;10.18;;
68192;SDS011;55012;47.562;18.414;2022-09-13T03:36:44;36.30;;;11.80;;
68192;SDS011;55012;47.562;18.414;2022-09-13T03:39:34;42.88;;;14.55;;
68192;SDS011;55012;47.562;18.414;2022-09-13T03:42:10;34.20;;;12.50;;
68192;SDS011;55012;47.562;18.414;2022-09-13T03:44:41;36.97;;;13.70;;
68192;SDS011;55012;47.562;18.414;2022-09-13T03:47:11;33.65;;;12.00;;
68192;SDS011;55012;47.562;18.414;2022-09-13T03:49:38;33.05;;;12.13;;
68192;SDS011;55012;47.562;18.414;2022-09-13T03:52:04;36.15;;;12.55;;
68192;SDS011;55012;47.562;18.414;2022-09-13T03:54:31;30.20;;;11.88;;
68192;SDS011;55012;47.562;18.414;2022-09-13T03:59:36;29.83;;;11.68;;
68192;SDS011;55012;47.562;18.414;2022-09-13T04:02:06;31.63;;;11.55;;
68192;SDS011;55012;47.562;18.414;2022-09-13T04:04:36;28.40;;;10.95;;
68192;SDS011;55012;47.562;18.414;2022-09-13T04:07:05;31.83;;;12.23;;
68192;SDS011;55012;47.562;18.414;2022-09-13T04:09:31;32.28;;;11.25;;
68192;SDS011;55012;47.562;18.414;2022-09-13T04:11:56;33.33;;;12.18;;
68192;SDS011;55012;47.562;18.414;2022-09-13T04:14:22;29.15;;;11.77;;
68192;SDS011;55012;47.562;18.414;2022-09-13T04:16:50;28.98;;;11.88;;
68192;SDS011;55012;47.562;18.414;2022-09-13T04:19:17;26.50;;;11.43;;
68192;SDS011;55012;47.562;18.414;2022-09-13T04:21:42;28.00;;;11.30;;
68192;SDS011;55012;47.562;18.414;2022-09-13T04:24:08;27.42;;;10.35;;
68192;SDS011;55012;47.562;18.414;2022-09-13T04:26:33;26.73;;;11.50;;
68192;SDS011;55012;47.562;18.414;2022-09-13T04:28:59;27.40;;;10.50;;
68192;SDS011;55012;47.562;18.414;2022-09-13T04:31:25;27.15;;;10.55;;
68192;SDS011;55012;47.562;18.414;2022-09-13T04:33:50;32.65;;;11.48;;
68192;SDS011;55012;47.562;18.414;2022-09-13T04:36:16;30.45;;;11.85;;
68192;SDS011;55012;47.562;18.414;2022-09-13T04:38:41;38.78;;;12.82;;
68192;SDS011;55012;47.562;18.414;2022-09-13T04:41:07;45.28;;;17.13;;
68192;SDS011;55012;47.562;18.414;2022-09-13T04:43:33;117.32;;;34.78;;
68192;SDS011;55012;47.562;18.414;2022-09-13T04:45:59;215.05;;;61.78;;
68192;SDS011;55012;47.562;18.414;2022-09-13T04:48:25;212.50;;;61.13;;
68192;SDS011;55012;47.562;18.414;2022-09-13T04:50:50;188.70;;;56.67;;
68192;SDS011;55012;47.562;18.414;2022-09-13T04:53:16;158.05;;;45.72;;
68192;SDS011;55012;47.562;18.414;2022-09-13T04:55:42;131.30;;;39.55;;
68192;SDS011;55012;47.562;18.414;2022-09-13T04:58:08;106.07;;;33.72;;
68192;SDS011;55012;47.562;18.414;2022-09-13T05:00:34;87.68;;;26.13;;
68192;SDS011;55012;47.562;18.414;2022-09-13T05:02:59;69.68;;;21.50;;
68192;SDS011;55012;47.562;18.414;2022-09-13T05:05:25;61.05;;;20.08;;
68192;SDS011;55012;47.562;18.414;2022-09-13T05:07:53;55.70;;;18.40;;
68192;SDS011;55012;47.562;18.414;2022-09-13T05:10:19;46.55;;;17.48;;
68192;SDS011;55012;47.562;18.414;2022-09-13T05:12:44;59.55;;;20.73;;
68192;SDS011;55012;47.562;18.414;2022-09-13T05:15:10;82.15;;;24.80;;
68192;SDS011;55012;47.562;18.414;2022-09-13T05:17:36;93.25;;;28.17;;
68192;SDS011;55012;47.562;18.414;2022-09-13T05:20:02;150.27;;;46.60;;
68192;SDS011;55012;47.562;18.414;2022-09-13T05:22:29;171.27;;;52.95;;
68192;SDS011;55012;47.562;18.414;2022-09-13T05:24:55;141.18;;;43.50;;
68192;SDS011;55012;47.562;18.414;2022-09-13T05:27:21;155.75;;;48.97;;
68192;SDS011;55012;47.562;18.414;2022-09-13T05:29:46;179.00;;;53.05;;
68192;SDS011;55012;47.562;18.414;2022-09-13T05:32:12;130.68;;;40.55;;
68192;SDS011;55012;47.562;18.414;2022-09-13T05:34:38;94.47;;;30.10;;
68192;SDS011;55012;47.562;18.414;2022-09-13T05:37:03;85.85;;;24.27;;
68192;SDS011;55012;47.562;18.414;2022-09-13T05:39:28;67.43;;;20.02;;
68192;SDS011;55012;47.562;18.414;2022-09-13T05:41:54;44.80;;;15.23;;
68192;SDS011;55012;47.562;18.414;2022-09-13T05:44:19;46.58;;;15.60;;
68192;SDS011;55012;47.562;18.414;2022-09-13T05:46:45;39.90;;;14.30;;
68192;SDS011;55012;47.562;18.414;2022-09-13T05:49:11;36.25;;;12.57;;
68192;SDS011;55012;47.562;18.414;2022-09-13T05:51:37;23.58;;;9.38;;
68192;SDS011;55012;47.562;18.414;2022-09-13T05:54:03;23.08;;;9.93;;
68192;SDS011;55012;47.562;18.414;2022-09-13T05:56:29;24.80;;;9.10;;
68192;SDS011;55012;47.562;18.414;2022-09-13T05:58:56;17.42;;;7.82;;
68192;SDS011;55012;47.562;18.414;2022-09-13T06:01:26;20.08;;;8.50;;
68192;SDS011;55012;47.562;18.414;2022-09-13T06:03:54;21.52;;;8.75;;
68192;SDS011;55012;47.562;18.414;2022-09-13T06:06:21;26.25;;;8.88;;
68192;SDS011;55012;47.562;18.414;2022-09-13T06:08:50;26.60;;;9.43;;
68192;SDS011;55012;47.562;18.414;2022-09-13T06:11:17;26.55;;;10.00;;
68192;SDS011;55012;47.562;18.414;2022-09-13T06:13:42;28.58;;;10.25;;
68192;SDS011;55012;47.562;18.414;2022-09-13T06:16:09;40.65;;;13.30;;
68192;SDS011;55012;47.562;18.414;2022-09-13T06:18:35;38.33;;;12.52;;
68192;SDS011;55012;47.562;18.414;2022-09-13T06:21:02;43.53;;;13.70;;
68192;SDS011;55012;47.562;18.414;2022-09-13T06:23:49;45.17;;;13.38;;
68192;SDS011;55012;47.562;18.414;2022-09-13T06:26:17;38.47;;;12.35;;
68192;SDS011;55012;47.562;18.414;2022-09-13T06:28:51;42.78;;;11.50;;
68192;SDS011;55012;47.562;18.414;2022-09-13T06:31:19;41.80;;;11.15;;
68192;SDS011;55012;47.562;18.414;2022-09-13T06:33:47;31.45;;;10.73;;
68192;SDS011;55012;47.562;18.414;2022-09-13T06:36:16;33.90;;;9.73;;
68192;SDS011;55012;47.562;18.414;2022-09-13T06:38:44;30.42;;;9.65;;
68192;SDS011;55012;47.562;18.414;2022-09-13T06:41:12;29.30;;;9.40;;
68192;SDS011;55012;47.562;18.414;2022-09-13T06:43:39;24.77;;;8.30;;
68192;SDS011;55012;47.562;18.414;2022-09-13T06:46:07;23.73;;;7.40;;
68192;SDS011;55012;47.562;18.414;2022-09-13T06:48:35;22.48;;;7.32;;
68192;SDS011;55012;47.562;18.414;2022-09-13T06:51:03;13.85;;;6.10;;
68192;SDS011;55012;47.562;18.414;2022-09-13T06:53:33;21.95;;;7.78;;
68192;SDS011;55012;47.562;18.414;2022-09-13T06:58:30;15.00;;;6.97;;
68192;SDS011;55012;47.562;18.414;2022-09-13T07:03:43;16.45;;;6.80;;
68192;SDS011;55012;47.562;18.414;2022-09-13T07:06:17;15.38;;;7.18;;
68192;SDS011;55012;47.562;18.414;2022-09-13T07:08:44;17.27;;;7.40;;
68192;SDS011;55012;47.562;18.414;2022-09-13T07:11:11;10.13;;;5.40;;
68192;SDS011;55012;47.562;18.414;2022-09-13T07:13:38;15.43;;;6.65;;
68192;SDS011;55012;47.562;18.414;2022-09-13T07:16:05;11.80;;;5.90;;
68192;SDS011;55012;47.562;18.414;2022-09-13T07:18:32;11.55;;;6.18;;
68192;SDS011;55012;47.562;18.414;2022-09-13T07:21:02;13.50;;;6.13;;
68192;SDS011;55012;47.562;18.414;2022-09-13T07:23:33;12.32;;;6.20;;
68192;SDS011;55012;47.562;18.414;2022-09-13T07:26:00;13.93;;;6.57;;
68192;SDS011;55012;47.562;18.414;2022-09-13T07:28:30;15.15;;;6.60;;
68192;SDS011;55012;47.562;18.414;2022-09-13T07:33:44;12.82;;;6.90;;
68192;SDS011;55012;47.562;18.414;2022-09-13T07:36:11;13.68;;;6.45;;
68192;SDS011;55012;47.562;18.414;2022-09-13T07:38:38;19.05;;;8.35;;
68192;SDS011;55012;47.562;18.414;2022-09-13T07:41:05;8.43;;;4.97;;
68192;SDS011;55012;47.562;18.414;2022-09-13T07:43:34;9.80;;;5.05;;
68192;SDS011;55012;47.562;18.414;2022-09-13T07:46:05;13.35;;;5.57;;
68192;SDS011;55012;47.562;18.414;2022-09-13T07:48:33;13.98;;;5.32;;
68192;SDS011;55012;47.562;18.414;2022-09-13T07:51:02;11.18;;;5.78;;
68192;SDS011;55012;47.562;18.414;2022-09-13T07:53:32;11.68;;;6.25;;
68192;SDS011;55012;47.562;18.414;2022-09-13T07:56:00;12.93;;;5.53;;
68192;SDS011;55012;47.562;18.414;2022-09-13T07:58:31;15.88;;;5.70;;
68192;SDS011;55012;47.562;18.414;2022-09-13T08:01:00;10.15;;;5.40;;
68192;SDS011;55012;47.562;18.414;2022-09-13T08:03:29;8.00;;;5.38;;
68192;SDS011;55012;47.562;18.414;2022-09-13T08:05:55;10.15;;;5.45;;
68192;SDS011;55012;47.562;18.414;2022-09-13T08:08:21;9.38;;;4.93;;
68192;SDS011;55012;47.562;18.414;2022-09-13T08:10:46;10.30;;;5.50;;
68192;SDS011;55012;47.562;18.414;2022-09-13T08:13:14;9.35;;;5.97;;
68192;SDS011;55012;47.562;18.414;2022-09-13T08:15:40;7.80;;;5.05;;
68192;SDS011;55012;47.562;18.414;2022-09-13T08:18:05;8.60;;;4.70;;
68192;SDS011;55012;47.562;18.414;2022-09-13T08:20:34;9.65;;;4.68;;
68192;SDS011;55012;47.562;18.414;2022-09-13T08:23:02;8.05;;;4.15;;
68192;SDS011;55012;47.562;18.414;2022-09-13T08:25:30;8.23;;;4.70;;
68192;SDS011;55012;47.562;18.414;2022-09-13T08:27:56;8.65;;;4.30;;
68192;SDS011;55012;47.562;18.414;2022-09-13T08:30:22;7.93;;;4.53;;
68192;SDS011;55012;47.562;18.414;2022-09-13T08:32:49;9.70;;;5.25;;
68192;SDS011;55012;47.562;18.414;2022-09-13T08:35:15;6.93;;;4.20;;
68192;SDS011;55012;47.562;18.414;2022-09-13T08:37:41;7.85;;;4.30;;
68192;SDS011;55012;47.562;18.414;2022-09-13T08:40:06;6.88;;;3.78;;
68192;SDS011;55012;47.562;18.414;2022-09-13T08:45:24;5.65;;;3.75;;
68192;SDS011;55012;47.562;18.414;2022-09-13T08:47:56;5.45;;;3.33;;
68192;SDS011;55012;47.562;18.414;2022-09-13T08:50:28;4.05;;;2.88;;
68192;SDS011;55012;47.562;18.414;2022-09-13T09:07:27;3.65;;;2.90;;
68192;SDS011;55012;47.562;18.414;2022-09-13T09:09:57;4.60;;;2.70;;
68192;SDS011;55012;47.562;18.414;2022-09-13T09:15:34;4.85;;;2.90;;
68192;SDS011;55012;47.562;18.414;2022-09-13T09:18:03;3.65;;;2.85;;
68192;SDS011;55012;47.562;18.414;2022-09-13T09:20:36;4.65;;;2.50;;
68192;SDS011;55012;47.562;18.414;2022-09-13T09:23:07;4.25;;;2.67;;
68192;SDS011;55012;47.562;18.414;2022-09-13T09:25:42;6.85;;;3.90;;
68192;SDS011;55012;47.562;18.414;2022-09-13T09:28:11;28.67;;;18.52;;
68192;SDS011;55012;47.562;18.414;2022-09-13T09:31:03;7.95;;;4.18;;
68192;SDS011;55012;47.562;18.414;2022-09-13T09:36:48;11.15;;;6.28;;
68192;SDS011;55012;47.562;18.414;2022-09-13T09:39:26;9.00;;;4.43;;
68192;SDS011;55012;47.562;18.414;2022-09-13T09:41:57;4.70;;;2.80;;
68192;SDS011;55012;47.562;18.414;2022-09-13T09:44:25;5.80;;;3.20;;
68192;SDS011;55012;47.562;18.414;2022-09-13T09:46:59;3.90;;;2.80;;
68192;SDS011;55012;47.562;18.414;2022-09-13T09:49:32;4.00;;;2.42;;
68192;SDS011;55012;47.562;18.414;2022-09-13T09:52:22;3.17;;;2.35;;
68192;SDS011;55012;47.562;18.414;2022-09-13T09:54:55;3.83;;;2.40;;
68192;SDS011;55012;47.562;18.414;2022-09-13T10:00:14;3.65;;;2.47;;
68192;SDS011;55012;47.562;18.414;2022-09-13T10:02:43;3.78;;;2.63;;
68192;SDS011;55012;47.562;18.414;2022-09-13T10:05:11;3.55;;;2.00;;
68192;SDS011;55012;47.562;18.414;2022-09-13T10:07:37;9.35;;;2.05;;
68192;SDS011;55012;47.562;18.414;2022-09-13T10:10:06;6.30;;;2.60;;
68192;SDS011;55012;47.562;18.414;2022-09-13T10:12:44;4.57;;;2.60;;
68192;SDS011;55012;47.562;18.414;2022-09-13T10:15:16;3.08;;;2.33;;
68192;SDS011;55012;47.562;18.414;2022-09-13T10:18:30;3.17;;;1.95;;
68192;SDS011;55012;47.562;18.414;2022-09-13T10:20:41;3.47;;;2.35;;
68192;SDS011;55012;47.562;18.414;2022-09-13T10:23:17;2.33;;;1.90;;
68192;SDS011;55012;47.562;18.414;2022-09-13T10:28:21;2.70;;;1.75;;
68192;SDS011;55012;47.562;18.414;2022-09-13T10:36:32;2.70;;;1.95;;
68192;SDS011;55012;47.562;18.414;2022-09-13T10:39:07;5.85;;;4.32;;
68192;SDS011;55012;47.562;18.414;2022-09-13T10:41:42;2.53;;;2.00;;
68192;SDS011;55012;47.562;18.414;2022-09-13T10:46:47;1.90;;;1.35;;
68192;SDS011;55012;47.562;18.414;2022-09-13T10:52:24;2.20;;;1.60;;
68192;SDS011;55012;47.562;18.414;2022-09-13T10:55:15;3.25;;;1.90;;
68192;SDS011;55012;47.562;18.414;2022-09-13T10:58:28;2.88;;;1.50;;
68192;SDS011;55012;47.562;18.414;2022-09-13T11:00:33;1.80;;;1.30;;
68192;SDS011;55012;47.562;18.414;2022-09-13T11:03:16;1.92;;;1.30;;
68192;SDS011;55012;47.562;18.414;2022-09-13T11:16:31;1.90;;;1.50;;
68192;SDS011;55012;47.562;18.414;2022-09-13T11:25:02;2.35;;;1.77;;
68192;SDS011;55012;47.562;18.414;2022-09-13T11:30:24;3.63;;;1.95;;
68192;SDS011;55012;47.562;18.414;2022-09-13T11:38:34;2.70;;;2.00;;
68192;SDS011;55012;47.562;18.414;2022-09-13T11:41:21;3.50;;;3.03;;
68192;SDS011;55012;47.562;18.414;2022-09-13T11:52:37;2.30;;;2.10;;
68192;SDS011;55012;47.562;18.414;2022-09-13T11:58:36;3.95;;;2.92;;
68192;SDS011;55012;47.562;18.414;2022-09-13T12:01:12;4.47;;;2.30;;
68192;SDS011;55012;47.562;18.414;2022-09-13T12:04:11;3.53;;;2.50;;
68192;SDS011;55012;47.562;18.414;2022-09-13T12:06:45;4.43;;;3.20;;
68192;SDS011;55012;47.562;18.414;2022-09-13T12:12:17;2.33;;;2.10;;
68192;SDS011;55012;47.562;18.414;2022-09-13T12:17:25;3.20;;;2.10;;
68192;SDS011;55012;47.562;18.414;2022-09-13T12:19:56;3.75;;;2.10;;
68192;SDS011;55012;47.562;18.414;2022-09-13T12:22:26;3.65;;;2.30;;
68192;SDS011;55012;47.562;18.414;2022-09-13T12:24:58;2.70;;;2.10;;
68192;SDS011;55012;47.562;18.414;2022-09-13T12:27:33;3.80;;;2.30;;
68192;SDS011;55012;47.562;18.414;2022-09-13T12:30:17;2.78;;;2.10;;
68192;SDS011;55012;47.562;18.414;2022-09-13T12:32:44;2.78;;;2.20;;
68192;SDS011;55012;47.562;18.414;2022-09-13T12:43:33;4.00;;;2.35;;
68192;SDS011;55012;47.562;18.414;2022-09-13T12:51:52;3.15;;;2.60;;
68192;SDS011;55012;47.562;18.414;2022-09-13T13:00:10;3.72;;;2.42;;
68192;SDS011;55012;47.562;18.414;2022-09-13T13:05:45;4.72;;;3.20;;
68192;SDS011;55012;47.562;18.414;2022-09-13T13:11:05;4.32;;;3.20;;
68192;SDS011;55012;47.562;18.414;2022-09-13T13:13:35;2.88;;;2.20;;
68192;SDS011;55012;47.562;18.414;2022-09-13T13:18:47;4.97;;;2.30;;
68192;SDS011;55012;47.562;18.414;2022-09-13T13:26:52;6.50;;;3.65;;
68192;SDS011;55012;47.562;18.414;2022-09-13T13:29:25;4.63;;;3.22;;
68192;SDS011;55012;47.562;18.414;2022-09-13T13:37:04;3.58;;;2.95;;
68192;SDS011;55012;47.562;18.414;2022-09-13T13:40:50;3.63;;;2.50;;
68192;SDS011;55012;47.562;18.414;2022-09-13T13:42:50;2.90;;;2.20;;
68192;SDS011;55012;47.562;18.414;2022-09-13T13:45:35;3.40;;;2.53;;
68192;SDS011;55012;47.562;18.414;2022-09-13T13:48:08;5.15;;;2.75;;
68192;SDS011;55012;47.562;18.414;2022-09-13T13:53:38;5.30;;;3.00;;
68192;SDS011;55012;47.562;18.414;2022-09-13T13:59:16;4.28;;;2.60;;
68192;SDS011;55012;47.562;18.414;2022-09-13T14:01:48;3.08;;;2.30;;
68192;SDS011;55012;47.562;18.414;2022-09-13T14:07:34;4.00;;;2.65;;
68192;SDS011;55012;47.562;18.414;2022-09-13T14:10:05;4.60;;;2.60;;
68192;SDS011;55012;47.562;18.414;2022-09-13T14:12:47;4.53;;;3.58;;
68192;SDS011;55012;47.562;18.414;2022-09-13T14:23:25;5.65;;;3.78;;
68192;SDS011;55012;47.562;18.414;2022-09-13T14:25:58;2.78;;;2.17;;
68192;SDS011;55012;47.562;18.414;2022-09-13T14:28:24;9.52;;;6.72;;
68192;SDS011;55012;47.562;18.414;2022-09-13T14:30:55;4.93;;;3.28;;
68192;SDS011;55012;47.562;18.414;2022-09-13T14:33:24;2.20;;;2.00;;
68192;SDS011;55012;47.562;18.414;2022-09-13T14:36:04;11.50;;;9.48;;
68192;SDS011;55012;47.562;18.414;2022-09-13T14:38:47;6.15;;;5.55;;
68192;SDS011;55012;47.562;18.414;2022-09-13T14:41:18;6.72;;;3.92;;
68192;SDS011;55012;47.562;18.414;2022-09-13T14:43:46;2.10;;;1.90;;
68192;SDS011;55012;47.562;18.414;2022-09-13T14:48:39;3.65;;;3.00;;
68192;SDS011;55012;47.562;18.414;2022-09-13T14:51:22;4.57;;;2.70;;
68192;SDS011;55012;47.562;18.414;2022-09-13T14:53:53;5.28;;;2.40;;
68192;SDS011;55012;47.562;18.414;2022-09-13T14:56:43;4.38;;;2.78;;
68192;SDS011;55012;47.562;18.414;2022-09-13T14:59:16;6.57;;;5.88;;
68192;SDS011;55012;47.562;18.414;2022-09-13T15:01:50;3.60;;;2.75;;
68192;SDS011;55012;47.562;18.414;2022-09-13T15:04:16;4.40;;;2.97;;
68192;SDS011;55012;47.562;18.414;2022-09-13T15:06:43;5.07;;;3.53;;
68192;SDS011;55012;47.562;18.414;2022-09-13T15:11:35;6.10;;;2.50;;
68192;SDS011;55012;47.562;18.414;2022-09-13T15:14:25;20.30;;;16.48;;
68192;SDS011;55012;47.562;18.414;2022-09-13T15:19:42;6.28;;;2.60;;
68192;SDS011;55012;47.562;18.414;2022-09-13T15:27:27;6.60;;;3.63;;
68192;SDS011;55012;47.562;18.414;2022-09-13T15:29:58;4.75;;;3.03;;
68192;SDS011;55012;47.562;18.414;2022-09-13T15:32:40;6.00;;;3.50;;
68192;SDS011;55012;47.562;18.414;2022-09-13T15:37:58;5.80;;;3.15;;
68192;SDS011;55012;47.562;18.414;2022-09-13T15:40:45;7.80;;;4.20;;
68192;SDS011;55012;47.562;18.414;2022-09-13T15:43:12;4.85;;;2.53;;
68192;SDS011;55012;47.562;18.414;2022-09-13T15:45:38;6.82;;;3.55;;
68192;SDS011;55012;47.562;18.414;2022-09-13T15:48:04;6.38;;;3.05;;
68192;SDS011;55012;47.562;18.414;2022-09-13T15:50:30;4.72;;;2.55;;
68192;SDS011;55012;47.562;18.414;2022-09-13T15:52:57;3.95;;;3.15;;
68192;SDS011;55012;47.562;18.414;2022-09-13T15:55:24;4.80;;;2.80;;
68192;SDS011;55012;47.562;18.414;2022-09-13T15:57:52;10.20;;;5.95;;
68192;SDS011;55012;47.562;18.414;2022-09-13T16:00:20;6.35;;;4.70;;
68192;SDS011;55012;47.562;18.414;2022-09-13T16:02:47;5.95;;;3.40;;
68192;SDS011;55012;47.562;18.414;2022-09-13T16:05:14;6.40;;;3.72;;
68192;SDS011;55012;47.562;18.414;2022-09-13T16:07:40;4.50;;;2.80;;
68192;SDS011;55012;47.562;18.414;2022-09-13T16:10:09;3.40;;;2.70;;
68192;SDS011;55012;47.562;18.414;2022-09-13T16:12:37;5.85;;;3.15;;
68192;SDS011;55012;47.562;18.414;2022-09-13T16:15:03;5.22;;;3.35;;
68192;SDS011;55012;47.562;18.414;2022-09-13T16:17:29;4.47;;;3.00;;
68192;SDS011;55012;47.562;18.414;2022-09-13T16:19:54;5.28;;;3.65;;
68192;SDS011;55012;47.562;18.414;2022-09-13T16:22:20;3.58;;;2.58;;
68192;SDS011;55012;47.562;18.414;2022-09-13T16:24:46;4.38;;;2.90;;
68192;SDS011;55012;47.562;18.414;2022-09-13T16:27:12;5.68;;;2.90;;
68192;SDS011;55012;47.562;18.414;2022-09-13T16:29:39;4.55;;;2.70;;
68192;SDS011;55012;47.562;18.414;2022-09-13T16:32:05;3.75;;;2.70;;
68192;SDS011;55012;47.562;18.414;2022-09-13T16:34:31;2.92;;;2.63;;
68192;SDS011;55012;47.562;18.414;2022-09-13T16:36:56;3.53;;;2.90;;
68192;SDS011;55012;47.562;18.414;2022-09-13T16:39:22;3.47;;;2.80;;
68192;SDS011;55012;47.562;18.414;2022-09-13T16:41:47;4.35;;;2.95;;
68192;SDS011;55012;47.562;18.414;2022-09-13T16:44:13;4.10;;;2.88;;
68192;SDS011;55012;47.562;18.414;2022-09-13T16:46:39;5.63;;;3.35;;
68192;SDS011;55012;47.562;18.414;2022-09-13T16:49:05;7.30;;;3.42;;
68192;SDS011;55012;47.562;18.414;2022-09-13T16:51:30;9.68;;;3.45;;
68192;SDS011;55012;47.562;18.414;2022-09-13T16:53:56;7.80;;;3.00;;
68192;SDS011;55012;47.562;18.414;2022-09-13T16:56:23;8.43;;;3.30;;
68192;SDS011;55012;47.562;18.414;2022-09-13T16:58:50;10.13;;;4.45;;
68192;SDS011;55012;47.562;18.414;2022-09-13T17:01:18;5.70;;;4.10;;
68192;SDS011;55012;47.562;18.414;2022-09-13T17:03:45;8.23;;;4.88;;
68192;SDS011;55012;47.562;18.414;2022-09-13T17:06:12;6.35;;;3.88;;
68192;SDS011;55012;47.562;18.414;2022-09-13T17:08:40;6.57;;;3.60;;
68192;SDS011;55012;47.562;18.414;2022-09-13T17:11:11;5.20;;;3.10;;
68192;SDS011;55012;47.562;18.414;2022-09-13T17:13:39;4.95;;;2.75;;
68192;SDS011;55012;47.562;18.414;2022-09-13T17:16:06;3.85;;;2.90;;
68192;SDS011;55012;47.562;18.414;2022-09-13T17:18:43;5.13;;;3.10;;
68192;SDS011;55012;47.562;18.414;2022-09-13T17:21:10;5.70;;;3.47;;
68192;SDS011;55012;47.562;18.414;2022-09-13T17:23:35;7.60;;;4.00;;
68192;SDS011;55012;47.562;18.414;2022-09-13T17:26:02;7.78;;;4.32;;
68192;SDS011;55012;47.562;18.414;2022-09-13T17:28:27;6.28;;;4.45;;
68192;SDS011;55012;47.562;18.414;2022-09-13T17:30:53;5.88;;;3.80;;
68192;SDS011;55012;47.562;18.414;2022-09-13T17:33:19;7.45;;;3.70;;
68192;SDS011;55012;47.562;18.414;2022-09-13T17:35:44;7.45;;;4.28;;
68192;SDS011;55012;47.562;18.414;2022-09-13T17:38:10;9.23;;;4.60;;
68192;SDS011;55012;47.562;18.414;2022-09-13T17:40:35;8.02;;;4.60;;
68192;SDS011;55012;47.562;18.414;2022-09-13T17:43:01;8.77;;;5.00;;
68192;SDS011;55012;47.562;18.414;2022-09-13T17:45:28;10.65;;;4.90;;
68192;SDS011;55012;47.562;18.414;2022-09-13T17:47:54;12.40;;;5.35;;
68192;SDS011;55012;47.562;18.414;2022-09-13T17:50:20;10.70;;;5.55;;
68192;SDS011;55012;47.562;18.414;2022-09-13T17:52:47;11.00;;;5.78;;
68192;SDS011;55012;47.562;18.414;2022-09-13T17:55:12;17.88;;;8.45;;
68192;SDS011;55012;47.562;18.414;2022-09-13T17:57:38;15.10;;;8.43;;
68192;SDS011;55012;47.562;18.414;2022-09-13T18:00:05;10.05;;;5.97;;
68192;SDS011;55012;47.562;18.414;2022-09-13T18:02:37;30.98;;;15.93;;
68192;SDS011;55012;47.562;18.414;2022-09-13T18:05:02;16.42;;;8.73;;
68192;SDS011;55012;47.562;18.414;2022-09-13T18:07:28;23.27;;;11.45;;
68192;SDS011;55012;47.562;18.414;2022-09-13T18:09:54;11.77;;;6.05;;
68192;SDS011;55012;47.562;18.414;2022-09-13T18:12:20;11.63;;;6.65;;
68192;SDS011;55012;47.562;18.414;2022-09-13T18:14:45;11.52;;;6.32;;